Terminal Aerodrome Forecast
Issued by NWS Corpus Christi, TX

Home | Current Version | Previous Version | Text Only | Print | Product List | Glossary On
Versions: 1 2 3 4 5 6 7 8 9 10 11 12
304
FTUS44 KCRP 301720
TAFCRP
TAF
KCRP 301720Z 3018/0118 02014KT P6SM SCT035
     FM010300 06008KT P6SM BKN250
     FM011500 04012KT P6SM SCT035 BKN200=

USA.gov is the U.S. government's official web portal to all federal, state and local government web resources and services.